AirNav   BOSE ProFlight Aviation Headset
 
 1497 users online  

87TE Rose Field Airport
Needville, Texas, USA

GOING TO NEEDVILLE?


FAA INFORMATION EFFECTIVE 21 JUNE 2018

Location

FAA Identifier: 87TE
Lat/Long: 29-27-06.8710N / 095-51-55.8300W
29-27.114517N / 095-51.930500W
29.4519086 / -95.8655083
(estimated)
Elevation: 100 ft. / 30 m (estimated)
Variation: 06E (1985)
From city: 3 miles NW of NEEDVILLE, TX
Time zone: UTC -5 (UTC -6 during Standard Time)
Zip code: 77461

Airport Operations

Airport use: Private use. Permission required prior to landing
Activation date: 02/1980
Control tower: no
ARTCC: HOUSTON CENTER
FSS: MONTGOMERY COUNTY FLIGHT SERVICE STATION
FOR FP FILING CALL CXO FSS 1-800-833-5602.
Attendance: UNATNDD
Wind indicator: no
Segmented circle: no
Landing fee: yes

Airport Communications

WX ASOS at SGR (15 nm NE): 118.125 (281-242-7605)
WX AWOS-3 at ARM (19 nm SW): 118.475 (979-532-2791)

Nearby radio navigation aids

VOR radial/distance  VOR name  Freq  Var
ELAr110/26.7EAGLE LAKE VOR/DME116.4008E
HUBr243/33.1HOBBY VOR/DME117.1005E

 
NDB name  Hdg/Dist  Freq  Var  ID
WHARTON046/19.124506EARM .- .-. --

Airport Services

Runway Information

Runway 13/31

Dimensions: 2100 x 80 ft. / 640 x 24 m
Surface: turf
RUNWAY 13  RUNWAY 31
Traffic pattern: leftleft
Obstructions: 30 ft. pole, 575 ft. from runwaynone

Airport Ownership and Management from official FAA records

Ownership: Privately-owned
Owner: WILLIAM C. JENSEN
4611 RHODA LANE
NEEDVILLE, TX 77461
Phone 832-878-6050
Manager: WILLIAM C. JENSEN
4611 RHODA LANE
NEEDVILLE, TX 77461
Phone 832-878-6050

Airport Operational Statistics

Aircraft based on the field: 2
Single engine airplanes: 2
    

Instrument Procedures

There are no published instrument procedures at 87TE.

Some nearby airports with instrument procedures:

KSGR - Sugar Land Regional Airport (15 nm NE)
KARM - Wharton Regional Airport (19 nm SW)
KAXH - Houston Southwest Airport (21 nm E)
KTME - Houston Executive Airport (21 nm N)
KIWS - West Houston Airport (24 nm NE)
 
Loc | Ops | Rwys | IFR | FBO | Links
Com | Nav | Svcs | Stats | Notes


 
Area around 87TE (Rose Field Airport)
 
Road maps at: MapQuest Bing Google
 
Aerial photo
WARNING: Photo may not be current or correct
Aerial photo of 87TE (Rose Field Airport)
Taken in December 2008

Do you have a better or more recent aerial photo of Rose Field Airport that you would like to share? If so, please send us your photo.

 
Sectional chart

 
Airport distance calculator
Flying to Rose Field Airport? Find the distance to fly.

From to 87TE

Sunrise and sunset
Times for 17-Jul-2018
 Local
(UTC-5)
 Zulu
(UTC)
Morning civil twilight06:0911:09
Sunrise06:3611:36
Sunset20:2301:23
Evening civil twilight20:5001:50

Current date and time
Zulu (UTC)  17-Jul-2018 21:51:13
Local (UTC-5)  17-Jul-2018 16:51:13
 
METAR
KSGR 
15nm NE 
172053Z 30007KT 10SM CLR 35/22 A3001 RMK AO2 SLP162 T03500222 58019
KARM 
19nm SW 
172135Z AUTO 21005KT 10SM CLR 35/20 A3001 RMK AO2 T03500196
KAXH 
21nm E 
172135Z AUTO 21004KT 10SM CLR 34/23 A3001 RMK AO2 T03410229
KTME 
21nm N 
172135Z AUTO 00000KT 10SM CLR 34/24 A3001 RMK AO2
KELA 
25nm W 
172135Z AUTO 25005KT 10SM CLR 34/24 A3000 RMK AO2 T03430241
KBYY 
29nm S 
172135Z AUTO 18007KT 10SM SCT041 33/24 A3001 RMK AO2 T03370244
KLBX 
29nm SE 
172053Z AUTO 27003KT 10SM BKN049 35/23 A3002 RMK AO2 SLP164 T03500228 58015
TAF
KSGR 
15nm NE 
171723Z 1718/1818 25008KT P6SM FEW035 FM172200 20007KT P6SM FEW050 FM180000 18008KT P6SM SCT050 FM180500 21005KT P6SM FEW250 FM181400 25007KT P6SM SCT015
NOTAMs
Click for the latest NOTAMs
NOTAMs are issued by the DoD/FAA and will open in a separate window not controlled by AirNav.

 

 
 

Would you like to see your business listed on this page?

 If your business provides an interesting product or service to pilots, flight crews, aircraft, or users of the Rose Field Airport, you should consider listing it here.  To start the listing process, click on the button below
 
Add a business
 

Other Pages about Rose Field Airport

Update a link
 
Copyright © AirNav, LLC. All rights reserved. Privacy Policy  Contact